createdAt,value
2023-04-06T00:00:28.016Z,6.70
2023-04-06T00:03:02.904Z,6.87
2023-04-06T00:05:32.823Z,6.37
2023-04-06T00:08:02.725Z,6.47
2023-04-06T00:10:32.663Z,6.43
2023-04-06T00:13:03.091Z,6.57
2023-04-06T00:15:32.878Z,6.93
2023-04-06T00:18:07.112Z,6.43
2023-04-06T00:20:36.988Z,7.00
2023-04-06T00:23:06.867Z,6.27
2023-04-06T00:25:36.702Z,7.20
2023-04-06T00:28:07.108Z,6.60
2023-04-06T00:30:36.904Z,6.90
2023-04-06T00:33:10.877Z,7.10
2023-04-06T00:35:40.763Z,6.93
2023-04-06T00:38:11.349Z,7.33
2023-04-06T00:40:41.353Z,6.87
2023-04-06T00:43:11.372Z,7.27
2023-04-06T00:45:42.327Z,6.57
2023-04-06T00:48:14.845Z,6.90
2023-04-06T00:50:44.710Z,6.53
2023-04-06T00:53:15.327Z,6.43
2023-04-06T00:55:45.129Z,6.80
2023-04-06T00:58:15.077Z,6.93
2023-04-06T01:00:44.946Z,6.40
2023-04-06T01:03:20.522Z,7.47
2023-04-06T01:05:50.613Z,8.07
2023-04-06T01:08:20.460Z,7.43
2023-04-06T01:10:50.296Z,7.43
2023-04-06T01:13:20.605Z,7.10
2023-04-06T01:15:50.734Z,6.97
2023-04-06T01:18:29.014Z,6.80
2023-04-06T01:21:02.635Z,7.17
2023-04-06T01:23:35.082Z,7.40
2023-04-06T01:26:04.889Z,7.07
2023-04-06T01:28:34.753Z,7.23
2023-04-06T01:31:13.642Z,8.00
2023-04-06T01:33:43.453Z,6.90
2023-04-06T01:36:13.318Z,7.93
2023-04-06T01:38:45.917Z,7.37
2023-04-06T01:41:16.342Z,7.13
2023-04-06T01:43:46.250Z,7.47
2023-04-06T01:46:16.200Z,8.00
2023-04-06T01:48:46.474Z,7.53
2023-04-06T01:51:16.292Z,8.20
2023-04-06T01:53:49.547Z,7.70
2023-04-06T01:56:19.322Z,7.93
2023-04-06T01:58:49.156Z,7.70
2023-04-06T02:01:18.977Z,8.00
2023-04-06T02:03:52.807Z,7.87
2023-04-06T02:06:22.616Z,8.80
2023-04-06T02:08:55.072Z,8.90
2023-04-06T02:11:24.860Z,8.33
2023-04-06T02:13:54.681Z,9.27
2023-04-06T02:16:24.550Z,8.47
2023-04-06T02:18:54.833Z,8.50
2023-04-06T02:21:24.686Z,9.23
2023-04-06T02:23:58.647Z,8.67
2023-04-06T02:26:28.446Z,8.37
2023-04-06T02:28:58.232Z,8.97
2023-04-06T02:31:28.147Z,8.67
2023-04-06T02:33:58.069Z,8.53
2023-04-06T02:36:27.913Z,8.53
2023-04-06T02:39:00.355Z,8.17
2023-04-06T02:41:30.219Z,9.37
2023-04-06T02:44:00.022Z,8.70
2023-04-06T02:46:29.995Z,8.73
2023-04-06T02:49:01.568Z,9.67
2023-04-06T02:51:31.352Z,9.47
2023-04-06T02:54:03.793Z,9.70
2023-04-06T02:56:33.581Z,9.67
2023-04-06T02:59:04.999Z,9.40
2023-04-06T03:01:35.027Z,9.83
2023-04-06T03:04:04.939Z,9.03
2023-04-06T03:06:34.820Z,8.93
2023-04-06T03:09:08.091Z,8.77
2023-04-06T03:11:38.136Z,10.43
2023-04-06T03:14:07.963Z,9.43
2023-04-06T03:16:37.851Z,9.73
2023-04-06T03:19:07.881Z,9.57
2023-04-06T03:21:37.861Z,9.77
2023-04-06T03:24:14.117Z,9.63
2023-04-06T03:26:43.996Z,9.50
2023-04-06T03:29:13.828Z,9.43
2023-04-06T03:31:45.295Z,10.20
2023-04-06T03:34:15.198Z,10.27
2023-04-06T03:36:45.009Z,9.90
2023-04-06T03:39:17.457Z,9.67
2023-04-06T03:41:47.312Z,9.00
2023-04-06T03:44:17.948Z,9.30
2023-04-06T03:46:47.853Z,9.53
2023-04-06T03:49:17.742Z,10.30
2023-04-06T03:51:47.637Z,9.83
2023-04-06T03:54:20.149Z,10.37
2023-04-06T03:56:50.014Z,9.63
2023-04-06T03:59:19.865Z,10.10
2023-04-06T04:01:49.724Z,9.43
2023-04-06T04:04:19.601Z,9.70
2023-04-06T04:06:49.499Z,9.30
2023-04-06T04:09:21.946Z,10.63
2023-04-06T04:11:52.022Z,9.73
2023-04-06T04:14:23.402Z,9.70
2023-04-06T04:16:53.426Z,9.47
2023-04-06T04:19:23.254Z,10.70
2023-04-06T04:21:53.074Z,9.23
2023-04-06T04:24:25.494Z,9.87
2023-04-06T04:26:55.522Z,10.13
2023-04-06T04:29:25.522Z,10.43
2023-04-06T04:31:55.480Z,10.40
2023-04-06T04:34:26.423Z,9.93
2023-04-06T04:36:59.669Z,10.90
2023-04-06T04:39:32.265Z,9.40
2023-04-06T04:42:02.289Z,9.83
2023-04-06T04:44:32.119Z,10.27
2023-04-06T04:47:02.061Z,9.97
2023-04-06T04:49:31.884Z,10.33
2023-04-06T04:52:01.716Z,10.40
2023-04-06T04:54:34.174Z,9.97
2023-04-06T04:57:04.109Z,10.17
2023-04-06T04:59:34.360Z,9.23
2023-04-06T05:02:04.460Z,9.93
2023-04-06T05:04:34.388Z,10.00
2023-04-06T05:07:08.656Z,9.97
2023-04-06T05:09:41.312Z,10.17
2023-04-06T05:12:12.676Z,9.27
2023-04-06T05:14:43.015Z,10.30
2023-04-06T05:17:12.935Z,10.33
2023-04-06T05:19:42.905Z,9.57
2023-04-06T05:22:12.764Z,9.73
2023-04-06T05:24:45.219Z,9.77
2023-04-06T05:27:15.150Z,9.97
2023-04-06T05:29:44.997Z,10.10
2023-04-06T05:32:15.030Z,10.20
2023-04-06T05:34:44.934Z,9.03
2023-04-06T05:37:14.812Z,9.87
2023-04-06T05:39:47.330Z,10.50
2023-04-06T05:42:17.143Z,10.77
2023-04-06T05:44:47.009Z,9.63
2023-04-06T05:47:16.958Z,9.80
2023-04-06T05:49:46.920Z,10.13
2023-04-06T05:52:17.512Z,9.83
2023-04-06T05:54:50.259Z,9.33
2023-04-06T05:57:20.422Z,10.17
2023-04-06T05:59:50.546Z,9.67
2023-04-06T06:02:20.698Z,10.53
2023-04-06T06:04:50.709Z,10.70
2023-04-06T06:07:20.857Z,11.00
2023-04-06T06:09:53.267Z,9.80
2023-04-06T06:12:23.917Z,9.20
2023-04-06T06:14:53.878Z,9.23
2023-04-06T06:17:23.844Z,9.70
2023-04-06T06:19:53.773Z,9.23
2023-04-06T06:22:25.084Z,9.47
2023-04-06T06:24:57.614Z,10.37
2023-04-06T06:27:27.658Z,10.20
2023-04-06T06:29:57.573Z,8.97
2023-04-06T06:32:28.605Z,9.07
2023-04-06T06:34:58.417Z,8.73
2023-04-06T06:37:31.108Z,9.40
2023-04-06T06:40:04.030Z,8.63
2023-04-06T06:42:33.930Z,8.77
2023-04-06T06:45:03.823Z,8.70
2023-04-06T06:47:35.641Z,9.07
2023-04-06T06:50:06.254Z,7.67
2023-04-06T06:52:38.338Z,7.70
2023-04-06T06:55:12.342Z,9.50
2023-04-06T06:57:43.666Z,8.23
2023-04-06T07:00:15.512Z,8.53
2023-04-06T07:02:46.075Z,8.30
2023-04-06T07:05:26.792Z,8.50
2023-04-06T07:07:59.755Z,9.07
2023-04-06T07:10:32.422Z,8.47
2023-04-06T07:13:02.290Z,8.57
2023-04-06T07:15:32.147Z,8.70
2023-04-06T07:18:02.909Z,8.83
2023-04-06T07:20:35.972Z,8.43
2023-04-06T07:23:06.506Z,8.17
2023-04-06T07:25:39.011Z,7.97
2023-04-06T07:28:08.937Z,8.27
2023-04-06T07:30:38.784Z,7.57
2023-04-06T07:33:11.227Z,8.43
2023-04-06T07:35:41.929Z,7.77
2023-04-06T07:38:11.940Z,7.87
2023-04-06T07:40:44.360Z,9.07
2023-04-06T07:43:16.625Z,10.07
2023-04-06T07:45:46.628Z,8.10
2023-04-06T07:48:16.535Z,8.53
2023-04-06T07:50:46.688Z,8.50
2023-04-06T07:53:17.575Z,8.73
2023-04-06T07:55:50.160Z,8.23
2023-04-06T07:58:21.477Z,8.97
2023-04-06T08:00:51.277Z,9.03
2023-04-06T08:03:24.107Z,8.77
2023-04-06T08:05:54.073Z,8.73
2023-04-06T08:08:24.070Z,9.20
2023-04-06T08:10:56.529Z,8.63
2023-04-06T08:13:27.752Z,9.33
2023-04-06T08:15:58.170Z,9.10
2023-04-06T08:18:28.329Z,7.00
2023-04-06T08:20:58.745Z,8.37
2023-04-06T08:23:28.721Z,7.53
2023-04-06T08:26:01.335Z,8.02
2023-04-06T08:28:31.272Z,8.17
2023-04-06T08:31:01.200Z,8.20
2023-04-06T08:33:31.110Z,7.70
2023-04-06T08:36:03.845Z,8.38
2023-04-06T08:38:33.696Z,7.45
2023-04-06T08:41:11.257Z,7.82
2023-04-06T08:43:47.236Z,7.40
2023-04-06T08:46:19.190Z,8.00
2023-04-06T08:48:51.250Z,7.80
2023-04-06T08:51:22.735Z,8.57
2023-04-06T08:53:55.717Z,7.75
2023-04-06T08:56:29.283Z,7.40
2023-04-06T08:59:02.088Z,7.97
2023-04-06T09:01:33.272Z,7.80
2023-04-06T09:04:08.792Z,8.10
2023-04-06T09:06:39.704Z,8.75
2023-04-06T09:09:09.809Z,7.75
2023-04-06T09:11:53.282Z,7.85
2023-04-06T09:14:38.487Z,8.82
2023-04-06T09:17:08.810Z,7.85
2023-04-06T09:19:52.675Z,8.25
2023-04-06T09:22:22.851Z,8.18
2023-04-06T09:24:55.926Z,7.78
2023-04-06T09:27:38.135Z,8.50
2023-04-06T09:30:11.272Z,9.07
2023-04-06T09:32:51.943Z,8.98
2023-04-06T09:35:22.799Z,7.78
2023-04-06T09:37:55.063Z,7.90
2023-04-06T09:40:25.555Z,9.30
2023-04-06T09:42:59.867Z,7.95
2023-04-06T09:45:33.384Z,7.43
2023-04-06T09:48:04.429Z,8.00
2023-04-06T09:50:35.583Z,8.30
2023-04-06T09:53:07.020Z,8.20
2023-04-06T09:55:41.747Z,8.68
2023-04-06T09:58:20.504Z,8.82
2023-04-06T10:00:55.308Z,9.02
2023-04-06T10:03:39.748Z,9.32
2023-04-06T10:06:17.095Z,9.07
2023-04-06T10:08:51.958Z,8.50
2023-04-06T10:11:22.407Z,8.85
2023-04-06T10:13:54.945Z,8.32
2023-04-06T10:16:26.413Z,9.75
2023-04-06T10:19:00.160Z,10.32
2023-04-06T10:21:32.404Z,10.43
2023-04-06T10:24:04.108Z,10.85
2023-04-06T10:26:34.319Z,10.95
2023-04-06T10:29:09.081Z,9.95
2023-04-06T10:31:46.032Z,10.02
2023-04-06T10:34:16.072Z,11.05
2023-04-06T10:36:45.980Z,10.43
2023-04-06T10:39:15.843Z,10.60
2023-04-06T10:41:49.365Z,10.52
2023-04-06T10:44:25.904Z,11.20
2023-04-06T10:47:01.626Z,9.15
2023-04-06T10:49:34.197Z,11.27
2023-04-06T10:52:04.068Z,11.82
2023-04-06T10:54:34.384Z,11.57
2023-04-06T10:57:07.996Z,11.35
2023-04-06T10:59:40.600Z,11.32
2023-04-06T11:02:10.524Z,11.30
2023-04-06T11:04:41.920Z,12.13
2023-04-06T11:07:11.837Z,13.63
2023-04-06T11:09:42.445Z,13.50
2023-04-06T11:12:12.302Z,13.75
2023-04-06T11:14:44.762Z,12.70
2023-04-06T11:17:14.947Z,17.90
2023-04-06T11:19:44.851Z,16.42
2023-04-06T11:22:16.561Z,19.90
2023-04-06T11:24:46.424Z,15.95
2023-04-06T11:27:17.550Z,17.90
2023-04-06T11:29:57.664Z,16.48
2023-04-06T11:32:27.584Z,15.98
2023-04-06T11:34:57.804Z,17.60
2023-04-06T11:37:30.571Z,17.65
2023-04-06T11:40:03.490Z,17.85
2023-04-06T11:42:33.716Z,19.13
2023-04-06T11:45:11.983Z,19.55
2023-04-06T11:47:43.205Z,17.27
2023-04-06T11:50:16.553Z,20.02
2023-04-06T11:52:46.784Z,16.85
2023-04-06T11:55:18.479Z,19.33
2023-04-06T11:57:48.558Z,20.08
2023-04-06T12:00:22.161Z,18.52
2023-04-06T12:02:52.856Z,19.58
2023-04-06T12:05:24.314Z,18.85
2023-04-06T12:07:54.225Z,19.95
2023-04-06T12:10:24.175Z,18.83
2023-04-06T12:12:54.017Z,19.15
2023-04-06T12:15:28.038Z,18.98
2023-04-06T12:17:57.893Z,18.40
2023-04-06T12:20:27.864Z,18.63
2023-04-06T12:22:57.914Z,16.77
2023-04-06T12:25:27.716Z,17.17
2023-04-06T12:27:58.074Z,17.15
2023-04-06T12:30:30.585Z,16.10
2023-04-06T12:33:00.486Z,17.10
2023-04-06T12:35:30.334Z,18.25
2023-04-06T12:38:03.887Z,16.75
2023-04-06T12:40:33.759Z,16.73
2023-04-06T12:43:03.591Z,18.25
2023-04-06T12:45:37.313Z,17.58
2023-04-06T12:48:08.116Z,18.10
2023-04-06T12:50:37.920Z,18.27
2023-04-06T12:53:07.730Z,19.20
2023-04-06T12:55:37.927Z,16.67
2023-04-06T12:58:07.802Z,16.63
2023-04-06T13:00:40.232Z,19.00
2023-04-06T13:03:10.961Z,19.23
2023-04-06T13:05:48.211Z,18.48
2023-04-06T13:08:19.406Z,16.48
2023-04-06T13:10:51.962Z,18.23
2023-04-06T13:13:25.066Z,15.93
2023-04-06T13:15:59.295Z,17.50
2023-04-06T13:18:29.249Z,17.52
2023-04-06T13:21:00.647Z,17.80
2023-04-06T13:23:30.735Z,16.23
2023-04-06T13:26:04.548Z,16.73
2023-04-06T13:28:39.034Z,15.57
2023-04-06T13:31:12.101Z,16.15
2023-04-06T13:33:42.805Z,17.63
2023-04-06T13:36:12.955Z,16.75
2023-04-06T13:38:43.338Z,17.13
2023-04-06T13:41:13.287Z,18.55
2023-04-06T13:43:43.091Z,17.60
2023-04-06T13:46:15.495Z,15.25
2023-04-06T13:48:45.462Z,14.20
2023-04-06T13:51:16.172Z,18.23
2023-04-06T13:53:46.738Z,13.20
2023-04-06T13:56:16.577Z,11.85
2023-04-06T13:58:46.425Z,11.50
2023-04-06T14:01:19.006Z,12.00
2023-04-06T14:03:50.221Z,10.82
2023-04-06T14:06:31.361Z,11.02
2023-04-06T14:09:02.316Z,9.07
2023-04-06T14:11:32.907Z,9.48
2023-04-06T14:14:03.444Z,8.65
2023-04-06T14:16:35.977Z,9.20
2023-04-06T14:19:05.832Z,8.27
2023-04-06T14:21:35.648Z,8.05
2023-04-06T14:24:05.649Z,7.53
2023-04-06T14:26:36.126Z,7.82
2023-04-06T14:29:06.180Z,8.85
2023-04-06T14:31:38.786Z,9.43
2023-04-06T14:34:10.852Z,9.55
2023-04-06T14:36:40.743Z,8.65
2023-04-06T14:39:11.796Z,9.88
2023-04-06T14:41:42.087Z,9.75
2023-04-06T14:44:13.471Z,10.43
2023-04-06T14:46:46.072Z,10.02
2023-04-06T14:49:15.968Z,9.10
2023-04-06T14:51:45.836Z,9.98
2023-04-06T14:54:15.712Z,9.93
2023-04-06T14:56:45.539Z,10.57
2023-04-06T14:59:15.373Z,10.70
2023-04-06T15:01:47.900Z,9.68
2023-04-06T15:04:19.639Z,10.75
2023-04-06T15:06:49.682Z,9.95
2023-04-06T15:09:19.595Z,10.23
2023-04-06T15:11:49.441Z,9.73
2023-04-06T15:14:19.248Z,10.80
2023-04-06T15:16:51.721Z,9.50
2023-04-06T15:19:21.661Z,9.77
2023-04-06T15:21:51.460Z,9.40
2023-04-06T15:24:21.290Z,8.90
2023-04-06T15:26:51.817Z,8.25
2023-04-06T15:29:21.787Z,8.27
2023-04-06T15:31:54.185Z,8.70
2023-04-06T15:34:24.012Z,10.73
2023-04-06T15:36:54.116Z,10.13
2023-04-06T15:39:23.896Z,10.30
2023-04-06T15:41:53.773Z,10.52
2023-04-06T15:44:23.570Z,9.02
2023-04-06T15:46:56.241Z,9.93
2023-04-06T15:49:27.896Z,10.07
2023-04-06T15:51:57.744Z,10.43
2023-04-06T15:54:27.546Z,10.85
2023-04-06T15:56:57.446Z,10.63
2023-04-06T15:59:27.400Z,10.27
2023-04-06T16:02:00.274Z,10.63
2023-04-06T16:04:31.984Z,10.47
2023-04-06T16:07:01.837Z,10.63
2023-04-06T16:09:31.675Z,10.18
2023-04-06T16:12:04.031Z,10.43
2023-04-06T16:14:33.826Z,11.18
2023-04-06T16:17:06.467Z,10.40
2023-04-06T16:19:36.299Z,10.00
2023-04-06T16:22:06.313Z,9.88
2023-04-06T16:24:36.136Z,10.57
2023-04-06T16:27:06.127Z,10.13
2023-04-06T16:29:38.725Z,10.77
2023-04-06T16:32:12.473Z,10.43
2023-04-06T16:34:42.400Z,10.07
2023-04-06T16:37:12.582Z,11.32
2023-04-06T16:39:42.396Z,11.45
2023-04-06T16:42:12.199Z,12.10
2023-04-06T16:44:42.112Z,11.55
2023-04-06T16:47:14.529Z,11.93
2023-04-06T16:49:44.893Z,12.67
2023-04-06T16:52:15.058Z,13.75
2023-04-06T16:54:45.689Z,12.63
2023-04-06T16:57:15.819Z,15.07
2023-04-06T16:59:46.279Z,14.90
2023-04-06T17:02:22.647Z,13.80
2023-04-06T17:04:52.570Z,14.17
2023-04-06T17:07:25.863Z,14.95
2023-04-06T17:09:55.712Z,15.02
2023-04-06T17:12:25.698Z,14.40
2023-04-06T17:14:55.693Z,15.50
2023-04-06T17:17:28.237Z,14.25
2023-04-06T17:19:58.173Z,14.13
2023-04-06T17:22:28.027Z,15.67
2023-04-06T17:24:58.705Z,14.00
2023-04-06T17:27:31.968Z,14.63
2023-04-06T17:30:06.563Z,11.83
2023-04-06T17:32:39.179Z,8.93
2023-04-06T17:35:13.129Z,8.20
2023-04-06T17:37:44.732Z,7.07
2023-04-06T17:40:15.146Z,7.47
2023-04-06T17:42:44.957Z,8.73
2023-04-06T17:45:15.945Z,7.90
2023-04-06T17:47:51.553Z,7.47
2023-04-06T17:50:21.826Z,8.03
2023-04-06T17:52:52.316Z,7.73
2023-04-06T17:55:25.346Z,7.90
2023-04-06T17:57:55.214Z,7.87
2023-04-06T18:00:25.926Z,8.82
2023-04-06T18:03:00.246Z,8.83
2023-04-06T18:05:30.252Z,7.97
2023-04-06T18:08:00.860Z,9.33
2023-04-06T18:10:30.719Z,9.67
2023-04-06T18:13:01.748Z,9.43
2023-04-06T18:15:31.610Z,9.80
2023-04-06T18:18:04.178Z,9.83
2023-04-06T18:20:34.053Z,9.23
2023-04-06T18:23:03.911Z,8.40
2023-04-06T18:25:33.795Z,8.83
2023-04-06T18:28:03.651Z,8.73
2023-04-06T18:30:35.257Z,9.17
2023-04-06T18:33:07.989Z,8.73
2023-04-06T18:35:38.818Z,9.00
2023-04-06T18:38:08.734Z,9.90
2023-04-06T18:40:40.209Z,9.53
2023-04-06T18:43:11.703Z,10.03
2023-04-06T18:45:43.529Z,10.40
2023-04-06T18:48:16.460Z,10.40
2023-04-06T18:50:57.803Z,9.30
2023-04-06T18:53:31.474Z,9.37
2023-04-06T18:56:02.008Z,8.47
2023-04-06T18:58:31.830Z,8.27
2023-04-06T19:01:01.689Z,9.20
2023-04-06T19:03:37.646Z,7.90
2023-04-06T19:06:09.006Z,8.63
2023-04-06T19:08:38.824Z,8.33
2023-04-06T19:11:10.132Z,8.23
2023-04-06T19:13:41.011Z,8.53
2023-04-06T19:16:12.438Z,8.57
2023-04-06T19:18:45.812Z,8.10
2023-04-06T19:21:19.705Z,9.60
2023-04-06T19:23:50.497Z,9.03
2023-04-06T19:26:22.415Z,8.70
2023-04-06T19:28:52.793Z,9.33
2023-04-06T19:31:22.865Z,10.27
2023-04-06T19:33:55.352Z,10.43
2023-04-06T19:36:25.238Z,10.90
2023-04-06T19:38:55.174Z,11.50
2023-04-06T19:41:26.470Z,11.60
2023-04-06T19:43:56.368Z,13.40
2023-04-06T19:46:26.237Z,12.87
2023-04-06T19:48:58.851Z,13.20
2023-04-06T19:51:28.685Z,13.27
2023-04-06T19:53:58.479Z,14.33
2023-04-06T19:56:31.119Z,14.50
2023-04-06T19:59:01.085Z,14.90
2023-04-06T20:01:31.062Z,14.60
2023-04-06T20:04:04.561Z,15.60
2023-04-06T20:06:34.492Z,15.73
2023-04-06T20:09:04.376Z,15.77
2023-04-06T20:11:36.488Z,17.47
2023-04-06T20:14:06.969Z,15.47
2023-04-06T20:16:36.900Z,17.63
2023-04-06T20:19:09.331Z,16.40
2023-04-06T20:21:39.719Z,16.73
2023-04-06T20:24:11.122Z,16.80
2023-04-06T20:26:41.383Z,15.77
2023-04-06T20:29:11.387Z,16.93
2023-04-06T20:31:41.449Z,17.37
2023-04-06T20:34:14.243Z,17.63
2023-04-06T20:36:44.376Z,17.23
2023-04-06T20:39:14.431Z,17.50
2023-04-06T20:41:45.630Z,17.37
2023-04-06T20:44:15.636Z,17.27
2023-04-06T20:46:46.187Z,17.20
2023-04-06T20:49:18.746Z,17.83
2023-04-06T20:51:48.647Z,16.83
2023-04-06T20:54:18.922Z,17.03
2023-04-06T20:56:49.056Z,17.83
2023-04-06T20:59:18.951Z,17.07
2023-04-06T21:01:48.890Z,16.67
2023-04-06T21:04:23.221Z,17.77
2023-04-06T21:06:53.179Z,17.60
2023-04-06T21:09:25.074Z,18.17
2023-04-06T21:11:54.869Z,19.97
2023-04-06T21:14:24.958Z,19.00
2023-04-06T21:16:56.038Z,18.47
2023-04-06T21:19:28.980Z,17.70
2023-04-06T21:21:59.344Z,17.70
2023-04-06T21:24:29.353Z,17.23
2023-04-06T21:26:59.290Z,18.70
2023-04-06T21:29:29.143Z,19.13
2023-04-06T21:31:59.032Z,20.80
2023-04-06T21:34:31.507Z,20.97
2023-04-06T21:37:01.507Z,19.10
2023-04-06T21:39:31.472Z,19.40
2023-04-06T21:42:01.413Z,19.67
2023-04-06T21:44:31.332Z,20.93
2023-04-06T21:47:01.499Z,19.90
2023-04-06T21:49:34.181Z,18.33
2023-04-06T21:52:04.081Z,21.33
2023-04-06T21:54:36.203Z,19.60
2023-04-06T21:57:06.267Z,20.43
2023-04-06T21:59:39.398Z,19.83
2023-04-06T22:02:09.440Z,19.00
2023-04-06T22:04:48.495Z,17.70
2023-04-06T22:07:18.421Z,18.77
2023-04-06T22:09:53.734Z,17.43
2023-04-06T22:12:23.758Z,17.40
2023-04-06T22:14:53.692Z,17.13
2023-04-06T22:17:23.556Z,17.67
2023-04-06T22:19:56.136Z,16.97
2023-04-06T22:22:26.162Z,17.27
2023-04-06T22:24:57.047Z,19.57
2023-04-06T22:27:27.004Z,20.23
2023-04-06T22:29:56.897Z,21.33
2023-04-06T22:32:28.445Z,18.80
2023-04-06T22:35:01.279Z,20.00
2023-04-06T22:37:31.179Z,20.13
2023-04-06T22:40:01.025Z,17.97
2023-04-06T22:42:30.965Z,18.43
2023-04-06T22:45:00.961Z,18.23
2023-04-06T22:47:30.933Z,18.23
2023-04-06T22:50:03.530Z,18.03
2023-04-06T22:52:33.771Z,17.47
2023-04-06T22:55:03.874Z,17.90
2023-04-06T22:57:36.233Z,17.33
2023-04-06T23:00:06.663Z,16.60
2023-04-06T23:02:40.444Z,16.83
2023-04-06T23:05:13.144Z,15.80
2023-04-06T23:07:42.969Z,14.80
2023-04-06T23:10:13.691Z,14.87
2023-04-06T23:12:43.519Z,13.33
2023-04-06T23:15:16.093Z,13.40
2023-04-06T23:17:45.970Z,13.30
2023-04-06T23:20:18.665Z,13.13
2023-04-06T23:22:48.491Z,11.67
2023-04-06T23:25:18.396Z,13.20
2023-04-06T23:27:48.213Z,11.17
2023-04-06T23:30:18.141Z,12.27
2023-04-06T23:32:48.744Z,11.67
2023-04-06T23:35:21.390Z,11.93
2023-04-06T23:37:51.283Z,11.30
2023-04-06T23:40:21.442Z,11.93
2023-04-06T23:42:51.341Z,11.80
2023-04-06T23:45:21.436Z,12.70
2023-04-06T23:47:53.625Z,13.60
2023-04-06T23:50:26.298Z,12.80
2023-04-06T23:52:56.213Z,13.17
2023-04-06T23:55:26.130Z,12.00
2023-04-06T23:57:55.977Z,12.33
